Time;durP1;ratioP1;P1;durP2;ratioP2;P2;SDS_P1;SDS_P2;PMS_P1;PMS_P2;Temp;Humidity;BMP_temperature;BMP_pressure;BME280_temperature;BME280_humidity;BME280_pressure;Samples;Min_cycle;Max_cycle;Signal;HPM_P1;HPM_P2
2021/05/18 00:00:42;;;;;;;1.07;0.93;;;9.50;99.90;;;;;;4894821;29;20438;-65
2021/05/18 00:03:09;;;;;;;1.00;0.70;;;9.40;99.90;;;;;;4893721;29;20267;-65
2021/05/18 00:05:37;;;;;;;1.00;0.80;;;9.40;99.90;;;;;;4895552;29;21201;-65
2021/05/18 00:08:06;;;;;;;1.07;0.77;;;9.40;99.90;;;;;;4894813;29;20523;-66
2021/05/18 00:13:20;;;;;;;1.20;0.70;;;9.50;99.90;;;;;;4883570;29;20956;-65
2021/05/18 00:15:47;;;;;;;0.83;0.77;;;9.40;99.90;;;;;;4887580;29;20435;-65
2021/05/18 00:18:14;;;;;;;0.87;0.70;;;9.40;99.90;;;;;;4879463;29;20467;-65
2021/05/18 00:20:41;;;;;;;0.80;0.70;;;9.40;99.90;;;;;;4887035;29;20819;-65
2021/05/18 00:23:09;;;;;;;0.77;0.70;;;9.40;99.90;;;;;;4889249;29;20438;-65
2021/05/18 00:25:34;;;;;;;0.70;0.70;;;9.40;99.90;;;;;;4876564;29;20436;-65
2021/05/18 00:28:00;;;;;;;0.80;0.80;;;9.40;99.90;;;;;;4883111;29;20456;-65
2021/05/18 00:30:26;;;;;;;0.90;0.90;;;9.40;99.90;;;;;;4878121;29;20227;-66
2021/05/18 00:32:52;;;;;;;1.13;1.03;;;9.40;99.90;;;;;;4888702;29;20216;-65
2021/05/18 00:35:18;;;;;;;0.97;0.90;;;9.40;99.90;;;;;;4887624;29;20443;-65
2021/05/18 00:37:44;;;;;;;1.00;0.90;;;9.50;99.90;;;;;;4880313;29;20486;-66
2021/05/18 00:40:13;;;;;;;0.90;0.90;;;9.40;99.90;;;;;;4893820;29;20594;-65
2021/05/18 00:42:47;;;;;;;0.80;0.80;;;9.40;99.90;;;;;;4894309;29;20171;-65
2021/05/18 00:45:14;;;;;;;0.90;0.67;;;9.40;99.90;;;;;;4895700;29;20454;-66
2021/05/18 00:47:39;;;;;;;1.00;0.90;;;9.40;99.90;;;;;;4883751;29;20546;-66
2021/05/18 00:50:05;;;;;;;1.07;0.90;;;9.40;99.90;;;;;;4881883;29;20514;-66
2021/05/18 00:52:31;;;;;;;1.00;0.90;;;9.40;99.90;;;;;;4888810;29;20211;-65
2021/05/18 00:55:04;;;;;;;0.77;0.73;;;9.40;99.90;;;;;;4892698;29;20516;-66
2021/05/18 01:00:15;;;;;;;1.13;1.00;;;9.40;99.90;;;;;;4879470;29;20471;-66
2021/05/18 01:02:41;;;;;;;1.70;1.00;;;9.30;99.90;;;;;;4884957;29;20850;-65
2021/05/18 01:05:16;;;;;;;1.23;0.70;;;9.30;99.90;;;;;;4897162;29;20467;-65
2021/05/18 01:07:41;;;;;;;1.60;1.03;;;9.30;99.90;;;;;;4883925;29;20211;-65
2021/05/18 01:10:07;;;;;;;0.80;0.70;;;9.40;99.90;;;;;;4887650;29;20529;-66
2021/05/18 01:12:33;;;;;;;2.30;1.00;;;9.50;99.90;;;;;;4895296;29;20197;-66
2021/05/18 01:14:58;;;;;;;2.10;0.87;;;9.50;99.90;;;;;;4889142;29;20481;-65
2021/05/18 01:17:24;;;;;;;0.77;0.77;;;9.50;99.90;;;;;;4881545;29;20207;-66
2021/05/18 01:19:50;;;;;;;1.57;0.87;;;9.50;99.90;;;;;;4883609;29;20190;-66
2021/05/18 01:22:15;;;;;;;1.17;1.10;;;9.60;99.90;;;;;;4879457;29;20286;-67
2021/05/18 01:24:41;;;;;;;1.27;0.93;;;9.70;99.90;;;;;;4889229;29;20738;-65
2021/05/18 01:27:07;;;;;;;0.93;0.63;;;9.70;99.90;;;;;;4888499;29;20231;-64
2021/05/18 01:29:33;;;;;;;1.13;1.00;;;9.70;99.90;;;;;;4887857;29;20450;-66
2021/05/18 01:32:00;;;;;;;1.00;0.93;;;9.70;99.90;;;;;;4883493;29;20436;-64
2021/05/18 01:34:25;;;;;;;1.10;0.80;;;9.70;99.90;;;;;;4896109;29;20266;-65
2021/05/18 01:36:51;;;;;;;1.90;0.87;;;9.70;99.90;;;;;;4892855;29;20531;-65
2021/05/18 01:44:32;;;;;;;1.30;1.10;;;9.60;99.90;;;;;;4889993;29;20594;-65
2021/05/18 01:46:57;;;;;;;1.63;1.10;;;9.60;99.90;;;;;;4896127;29;20435;-65
2021/05/18 01:49:23;;;;;;;1.10;1.00;;;9.50;99.90;;;;;;4880765;29;20459;-67
2021/05/18 01:51:51;;;;;;;1.63;0.90;;;9.50;99.90;;;;;;4889002;29;20183;-66
2021/05/18 01:54:23;;;;;;;1.10;1.00;;;9.50;99.90;;;;;;4887595;29;20230;-66
2021/05/18 01:59:30;;;;;;;0.97;0.97;;;9.50;99.90;;;;;;4884508;29;20464;-66
2021/05/18 02:01:59;;;;;;;1.30;1.20;;;9.50;99.90;;;;;;4885130;29;20954;-66
2021/05/18 02:04:39;;;;;;;1.00;0.90;;;9.50;99.90;;;;;;4888065;29;20484;-65
2021/05/18 02:07:21;;;;;;;1.23;1.10;;;9.50;99.90;;;;;;4887881;29;20431;-66
2021/05/18 02:09:47;;;;;;;1.70;0.73;;;9.50;99.90;;;;;;4888332;29;20802;-65
2021/05/18 02:12:13;;;;;;;1.90;1.03;;;9.50;99.90;;;;;;4892890;29;20442;-68
2021/05/18 02:14:41;;;;;;;0.83;0.83;;;9.40;99.90;;;;;;4883686;29;20190;-66
2021/05/18 02:25:17;;;;;;;1.47;1.37;;;9.40;99.90;;;;;;4895558;29;20899;-68
2021/05/18 02:27:43;;;;;;;0.83;0.80;;;9.30;99.90;;;;;;4896281;29;20451;-67
2021/05/18 02:30:10;;;;;;;0.90;0.90;;;9.30;99.90;;;;;;4896035;29;20494;-66
2021/05/18 02:32:36;;;;;;;2.07;1.40;;;9.30;99.90;;;;;;4896168;29;20247;-66
2021/05/18 02:35:04;;;;;;;1.80;1.00;;;9.30;99.90;;;;;;4896628;29;20604;-66
2021/05/18 02:37:30;;;;;;;1.80;1.10;;;9.20;99.90;;;;;;4895916;29;20595;-65
2021/05/18 02:39:56;;;;;;;0.87;0.87;;;9.30;99.90;;;;;;4896079;29;21005;-65
2021/05/18 02:42:21;;;;;;;1.20;1.10;;;9.30;99.90;;;;;;4896177;29;20178;-66
2021/05/18 02:44:53;;;;;;;1.10;1.00;;;9.30;99.90;;;;;;4896233;29;20254;-66
2021/05/18 02:50:04;;;;;;;1.27;1.17;;;9.30;99.90;;;;;;4895809;29;20458;-66
2021/05/18 02:52:31;;;;;;;1.63;1.53;;;9.30;99.90;;;;;;4895633;29;20447;-66
2021/05/18 02:54:57;;;;;;;0.83;0.83;;;9.40;99.90;;;;;;4895771;29;20551;-65
2021/05/18 02:57:37;;;;;;;1.10;1.00;;;9.40;99.90;;;;;;4895934;29;20521;-66
2021/05/18 03:00:14;;;;;;;1.07;0.97;;;9.40;99.90;;;;;;4895763;29;20874;-65
2021/05/18 03:02:40;;;;;;;1.13;1.13;;;9.40;99.90;;;;;;4895874;29;20442;-65
2021/05/18 03:05:06;;;;;;;1.13;1.03;;;9.50;99.90;;;;;;4895498;29;20463;-66
2021/05/18 03:07:32;;;;;;;1.13;1.03;;;9.40;99.90;;;;;;4895544;29;20463;-65
2021/05/18 03:09:57;;;;;;;1.70;0.87;;;9.40;99.90;;;;;;4895551;29;20435;-65
2021/05/18 03:12:23;;;;;;;1.50;0.80;;;9.40;99.90;;;;;;4895495;29;20307;-66
2021/05/18 03:14:48;;;;;;;1.10;0.97;;;9.50;99.90;;;;;;4894197;29;20870;-66
2021/05/18 03:17:15;;;;;;;2.10;1.37;;;9.50;99.90;;;;;;4895521;29;20187;-66
2021/05/18 03:19:41;;;;;;;3.40;1.20;;;9.50;99.90;;;;;;4895119;29;20187;-65
2021/05/18 03:22:06;;;;;;;2.07;1.30;;;9.50;99.90;;;;;;4895399;29;20443;-66
2021/05/18 03:24:32;;;;;;;1.77;1.13;;;9.50;99.90;;;;;;4895460;29;20263;-66
2021/05/18 03:26:57;;;;;;;1.50;0.93;;;9.60;99.90;;;;;;4895433;29;20171;-66
2021/05/18 03:29:26;;;;;;;1.00;1.00;;;9.50;99.90;;;;;;4895174;29;20223;-66
2021/05/18 03:34:38;;;;;;;1.67;1.57;;;9.50;99.90;;;;;;4895825;29;20454;-66
2021/05/18 03:37:15;;;;;;;1.10;1.00;;;9.40;99.90;;;;;;4895438;29;20904;-66
2021/05/18 03:39:42;;;;;;;0.80;0.80;;;9.40;99.90;;;;;;4895487;29;20522;-65
2021/05/18 03:52:19;;;;;;;0.93;0.93;;;9.30;99.90;;;;;;4894967;29;20854;-64
2021/05/18 03:58:40;;;;;;;1.90;1.07;;;9.20;99.90;;;;;;4895346;29;20454;-65
2021/05/18 04:17:04;;;;;;;2.30;0.90;;;9.30;99.90;;;;;;4885081;29;20496;-66
2021/05/18 04:19:37;;;;;;;0.97;0.97;;;9.40;99.90;;;;;;4882233;29;20452;-66
2021/05/18 04:22:22;;;;;;;4.20;3.80;;;9.40;99.90;;;;;;4885543;29;20230;-66
2021/05/18 04:25:18;;;;;;;1.63;1.43;;;9.40;99.90;;;;;;4886685;29;20478;-66
2021/05/18 04:38:47;;;;;;;0.93;0.83;;;9.70;99.90;;;;;;4898100;29;21019;-65
2021/05/18 04:41:38;;;;;;;0.90;0.90;;;9.80;99.90;;;;;;4898264;29;20443;-66
2021/05/18 04:49:51;;;;;;;1.00;1.00;;;9.80;99.90;;;;;;4885219;29;21047;-66
2021/05/18 04:52:22;;;;;;;1.30;1.20;;;9.80;99.90;;;;;;4888802;29;20436;-66
2021/05/18 05:00:22;;;;;;;1.90;1.30;;;9.80;99.90;;;;;;4896322;29;20466;-66
2021/05/18 05:08:24;;;;;;;1.23;1.13;;;9.70;99.90;;;;;;4879779;29;20490;-66
2021/05/18 05:16:03;;;;;;;1.73;1.10;;;10.00;99.90;;;;;;4898042;29;21266;-66
2021/05/18 05:18:29;;;;;;;1.60;1.40;;;10.00;99.90;;;;;;4897260;29;20530;-66
2021/05/18 05:20:54;;;;;;;1.10;1.00;;;10.10;99.90;;;;;;4897160;29;20194;-66
2021/05/18 05:23:20;;;;;;;2.67;2.07;;;10.10;99.90;;;;;;4897444;29;20222;-66
2021/05/18 05:25:45;;;;;;;3.03;1.80;;;10.10;99.90;;;;;;4897489;29;20187;-66
2021/05/18 05:28:11;;;;;;;1.57;1.47;;;10.00;99.90;;;;;;4896912;29;20550;-66
2021/05/18 05:30:36;;;;;;;1.27;1.17;;;10.00;99.90;;;;;;4897013;29;20292;-65
2021/05/18 05:33:02;;;;;;;1.67;1.33;;;10.00;99.90;;;;;;4895927;29;20570;-65
2021/05/18 05:35:28;;;;;;;2.40;1.33;;;10.00;99.90;;;;;;4896818;29;20239;-67
2021/05/18 05:37:55;;;;;;;1.40;1.30;;;10.00;99.90;;;;;;4884935;29;20215;-65
2021/05/18 05:40:20;;;;;;;1.53;1.30;;;10.00;99.90;;;;;;4889298;29;20650;-66
2021/05/18 05:42:46;;;;;;;1.83;1.10;;;10.00;99.90;;;;;;4880565;29;20439;-66
2021/05/18 05:45:12;;;;;;;1.90;1.23;;;10.00;99.90;;;;;;4882954;29;20210;-65
2021/05/18 05:47:37;;;;;;;1.40;1.30;;;10.00;99.90;;;;;;4888290;29;20199;-64
2021/05/18 05:50:04;;;;;;;1.37;1.13;;;10.00;99.90;;;;;;4885587;29;20977;-65
2021/05/18 05:52:32;;;;;;;3.60;1.50;;;10.00;99.90;;;;;;4890061;29;20189;-70
2021/05/18 05:54:58;;;;;;;2.10;1.80;;;10.00;99.90;;;;;;4894191;29;20486;-65
2021/05/18 05:57:23;;;;;;;2.90;2.60;;;10.00;99.90;;;;;;4881820;29;20428;-71
2021/05/18 05:59:49;;;;;;;2.83;2.00;;;9.90;99.90;;;;;;4885356;29;20187;-67
2021/05/18 06:02:15;;;;;;;2.47;2.03;;;9.90;99.90;;;;;;4887224;29;20215;-67
2021/05/18 06:04:41;;;;;;;1.83;1.73;;;9.90;99.90;;;;;;4883480;29;20209;-66
2021/05/18 06:07:06;;;;;;;1.67;1.57;;;9.90;99.90;;;;;;4894445;29;20432;-67
2021/05/18 06:09:34;;;;;;;3.83;1.80;;;10.00;99.90;;;;;;4885243;29;20210;-66
2021/05/18 06:12:18;;;;;;;1.90;1.73;;;10.00;99.90;;;;;;4894381;29;20557;-66
2021/05/18 06:17:57;;;;;;;5.00;1.80;;;10.00;99.90;;;;;;4895999;29;20442;-66
2021/05/18 06:47:31;;;;;;;2.73;2.10;;;11.00;99.90;;;;;;4893192;29;20505;-66
2021/05/18 06:52:40;;;;;;;2.10;1.90;;;11.30;99.90;;;;;;4881567;29;20546;-66
2021/05/18 06:55:13;;;;;;;2.30;2.10;;;11.40;99.90;;;;;;4893639;29;20439;-65
2021/05/18 06:57:45;;;;;;;3.43;1.33;;;11.40;99.90;;;;;;4892384;29;20528;-64
2021/05/18 07:00:14;;;;;;;1.40;1.30;;;11.50;99.90;;;;;;4886707;29;20439;-66
2021/05/18 07:02:43;;;;;;;3.43;1.53;;;11.70;99.90;;;;;;4885798;29;20954;-65
2021/05/18 07:05:15;;;;;;;2.37;1.60;;;11.80;99.90;;;;;;4883725;29;20559;-66
2021/05/18 07:07:42;;;;;;;3.90;2.10;;;12.00;99.90;;;;;;4888660;29;20498;-66
2021/05/18 07:10:08;;;;;;;2.13;1.73;;;12.30;99.90;;;;;;4891141;29;20427;-65
2021/05/18 07:12:36;;;;;;;2.60;1.87;;;12.60;99.90;;;;;;4882932;29;20440;-65
2021/05/18 07:15:03;;;;;;;4.20;1.40;;;12.60;99.90;;;;;;4884344;29;20439;-66
2021/05/18 07:17:28;;;;;;;1.83;1.50;;;12.60;99.90;;;;;;4887130;29;20898;-67
2021/05/18 07:19:54;;;;;;;1.77;1.67;;;12.60;99.90;;;;;;4895155;29;20439;-68
2021/05/18 07:22:19;;;;;;;2.27;1.50;;;12.70;99.90;;;;;;4894937;29;20183;-64
2021/05/18 07:24:45;;;;;;;3.87;2.83;;;12.90;99.90;;;;;;4894828;29;20878;-66
2021/05/18 07:27:10;;;;;;;8.13;1.50;;;13.40;99.90;;;;;;4893169;29;20672;-68
2021/05/18 07:29:36;;;;;;;2.03;1.50;;;13.80;99.90;;;;;;4890469;29;20274;-67
2021/05/18 07:32:02;;;;;;;3.50;1.60;;;14.20;99.90;;;;;;4886169;29;20191;-67
2021/05/18 07:34:28;;;;;;;2.07;1.20;;;14.40;99.90;;;;;;4885531;29;20537;-66
2021/05/18 07:36:53;;;;;;;2.90;1.27;;;14.50;99.90;;;;;;4887173;29;20242;-66
2021/05/18 07:39:19;;;;;;;1.60;1.40;;;14.20;99.90;;;;;;4888598;29;20225;-65
2021/05/18 07:41:44;;;;;;;1.60;1.50;;;14.10;99.90;;;;;;4892194;29;20191;-66
2021/05/18 07:44:10;;;;;;;1.97;1.40;;;13.70;99.90;;;;;;4891365;29;20711;-66
2021/05/18 07:46:39;;;;;;;2.00;1.80;;;13.60;99.90;;;;;;4891998;29;20179;-67
2021/05/18 07:49:15;;;;;;;2.57;1.90;;;13.60;99.90;;;;;;4888873;29;20696;-65
2021/05/18 07:59:57;;;;;;;3.80;1.50;;;13.40;99.90;;;;;;4895813;29;20529;-66
2021/05/18 08:02:32;;;;;;;3.93;3.50;;;13.20;99.90;;;;;;4896352;29;20983;-65
2021/05/18 08:07:42;;;;;;;6.93;2.13;;;13.00;99.90;;;;;;4900523;29;20473;-65
2021/05/18 08:12:40;;;;;;;3.23;2.20;;;12.70;99.90;;;;;;4896298;29;20182;-66
2021/05/18 08:18:34;;;;;;;2.63;1.80;;;12.40;99.90;;;;;;4892984;29;20194;-66
2021/05/18 08:20:44;;;;;;;3.00;2.40;;;12.10;99.90;;;;;;4888809;29;20441;-66
2021/05/18 08:46:42;;;;;;;3.17;1.80;;;11.90;99.90;;;;;;4895709;29;20928;-66
2021/05/18 08:48:56;;;;;;;3.07;2.00;;;13.80;99.90;;;;;;4889098;29;20465;-67
2021/05/18 09:01:45;;;;;;;2.00;1.90;;;14.80;99.90;;;;;;4890627;29;20467;-65
2021/05/18 09:28:47;;;;;;;4.73;2.10;;;15.00;99.90;;;;;;4889568;29;20442;-64
2021/05/18 09:44:29;;;;;;;2.97;1.47;;;14.00;99.90;;;;;;4884487;29;20477;-66
2021/05/18 10:36:29;;;;;;;1.40;1.30;;;17.60;99.90;;;;;;4895691;29;20442;-65
2021/05/18 10:39:22;;;;;;;3.10;2.00;;;19.40;99.90;;;;;;4883776;29;20221;-68
2021/05/18 10:41:48;;;;;;;1.30;1.20;;;20.70;99.90;;;;;;4886263;29;20443;-66
2021/05/18 10:44:14;;;;;;;3.33;1.00;;;21.20;99.90;;;;;;4892934;29;20882;-68
2021/05/18 10:46:49;;;;;;;2.60;1.50;;;21.90;99.90;;;;;;4881752;29;20439;-68
2021/05/18 10:49:29;;;;;;;2.70;1.13;;;21.90;99.90;;;;;;4876360;29;20196;-68
2021/05/18 10:51:55;;;;;;;2.07;1.33;;;21.90;98.20;;;;;;4892951;29;20531;-67
2021/05/18 10:54:27;;;;;;;2.20;0.90;;;22.60;93.40;;;;;;4895491;29;20558;-67
2021/05/18 10:56:55;;;;;;;1.30;1.20;;;22.90;92.50;;;;;;4892603;29;20450;-67
2021/05/18 10:59:27;;;;;;;1.20;1.10;;;22.90;91.00;;;;;;4883797;29;21012;-66
2021/05/18 11:01:57;;;;;;;2.10;0.97;;;21.90;90.60;;;;;;4886491;29;20448;-66
2021/05/18 11:04:23;;;;;;;3.10;1.30;;;20.90;92.70;;;;;;4886261;29;20463;-67
2021/05/18 11:06:58;;;;;;;5.70;1.20;;;21.50;92.40;;;;;;4888225;29;20546;-66
2021/05/18 11:09:24;;;;;;;3.50;1.20;;;22.90;89.50;;;;;;4878073;29;20553;-66
2021/05/18 11:12:05;;;;;;;4.07;1.40;;;22.90;87.00;;;;;;4892207;29;20435;-67
2021/05/18 11:14:38;;;;;;;2.80;1.50;;;23.00;87.80;;;;;;4892417;29;20530;-67
2021/05/18 11:17:11;;;;;;;1.97;1.40;;;23.10;84.70;;;;;;4891180;29;20446;-66
2021/05/18 11:20:23;;;;;;;1.53;1.07;;;24.10;84.20;;;;;;4885821;29;20466;-67
2021/05/18 11:23:26;;;;;;;1.10;1.00;;;24.30;75.40;;;;;;4889598;29;20446;-66
2021/05/18 11:26:03;;;;;;;0.90;0.90;;;23.20;73.50;;;;;;4892004;29;20468;-67
2021/05/18 11:28:37;;;;;;;1.93;1.20;;;22.10;79.70;;;;;;4881890;29;20459;-67
2021/05/18 11:31:05;;;;;;;3.40;0.97;;;23.90;77.90;;;;;;4887231;29;20498;-67
2021/05/18 11:33:34;;;;;;;1.97;1.10;;;23.80;74.20;;;;;;4886887;29;20508;-66
2021/05/18 11:36:02;;;;;;;2.90;1.10;;;23.00;74.10;;;;;;4876513;29;21665;-66
2021/05/18 11:38:28;;;;;;;3.20;1.33;;;22.40;77.90;;;;;;4880112;29;20557;-67
2021/05/18 11:40:54;;;;;;;1.27;1.17;;;20.50;92.40;;;;;;4875634;29;20551;-65
2021/05/18 11:43:25;;;;;;;1.33;1.23;;;18.20;99.90;;;;;;4893378;29;20439;-67
2021/05/18 11:46:10;;;;;;;1.23;1.13;;;16.30;99.90;;;;;;4897256;29;20546;-66
2021/05/18 11:48:39;;;;;;;1.30;1.20;;;14.90;99.90;;;;;;4884005;29;20470;-66
2021/05/18 11:51:14;;;;;;;1.70;1.30;;;14.30;99.90;;;;;;4891848;29;20431;-65
2021/05/18 11:54:04;;;;;;;1.47;1.20;;;13.90;99.90;;;;;;4892247;29;20497;-65
2021/05/18 11:56:33;;;;;;;2.57;2.37;;;13.70;99.90;;;;;;4890776;29;20498;-65
2021/05/18 11:59:17;;;;;;;2.33;1.10;;;13.80;99.90;;;;;;4880895;29;20459;-67
2021/05/18 12:01:43;;;;;;;4.53;4.10;;;14.50;99.90;;;;;;4889498;29;20627;-66
2021/05/18 12:04:23;;;;;;;1.23;1.00;;;15.70;99.90;;;;;;4891413;29;20577;-66
2021/05/18 12:06:57;;;;;;;1.47;0.97;;;16.40;99.90;;;;;;4878878;29;20179;-68
2021/05/18 12:09:23;;;;;;;1.00;0.90;;;17.10;99.90;;;;;;4882131;29;20789;-66
2021/05/18 12:12:00;;;;;;;2.43;1.20;;;17.00;99.90;;;;;;4889184;29;20435;-66
2021/05/18 12:14:28;;;;;;;3.10;2.30;;;16.70;99.90;;;;;;4891187;29;20486;-65
2021/05/18 12:16:54;;;;;;;1.53;0.93;;;16.80;99.90;;;;;;4892017;29;20439;-66
2021/05/18 12:19:21;;;;;;;1.60;1.50;;;19.00;99.90;;;;;;4881735;29;20461;-66
2021/05/18 12:21:53;;;;;;;0.80;0.70;;;21.70;97.70;;;;;;4891474;29;20449;-65
2021/05/18 12:24:24;;;;;;;1.20;1.00;;;23.90;87.10;;;;;;4891300;29;20481;-67
2021/05/18 12:26:59;;;;;;;1.20;1.10;;;25.50;67.10;;;;;;4892167;29;20941;-66
2021/05/18 12:29:37;;;;;;;1.40;0.90;;;25.30;64.10;;;;;;4884500;29;20502;-67
2021/05/18 12:32:26;;;;;;;1.17;1.07;;;26.20;63.20;;;;;;4887190;29;20457;-66
2021/05/18 12:34:56;;;;;;;1.40;0.90;;;26.30;61.20;;;;;;4886895;29;20802;-66
2021/05/18 12:37:43;;;;;;;1.43;1.00;;;25.20;58.60;;;;;;4888733;29;20447;-68
2021/05/18 12:40:14;;;;;;;2.10;1.30;;;25.00;58.70;;;;;;4890181;29;20531;-65
2021/05/18 12:42:42;;;;;;;2.00;0.87;;;23.10;63.80;;;;;;4883254;29;20475;-66
2021/05/18 12:45:20;;;;;;;3.40;1.20;;;22.90;61.80;;;;;;4893933;29;20999;-66
2021/05/18 12:47:58;;;;;;;3.40;1.90;;;21.70;65.20;;;;;;4889325;29;20496;-68
2021/05/18 12:50:35;;;;;;;2.50;1.40;;;20.80;68.90;;;;;;4893715;29;21024;-66
2021/05/18 12:53:01;;;;;;;3.77;1.50;;;19.30;76.40;;;;;;4894642;29;20518;-65
2021/05/18 12:55:28;;;;;;;2.80;1.10;;;18.40;98.40;;;;;;4894720;29;20518;-66
2021/05/18 12:58:05;;;;;;;3.70;0.90;;;19.10;97.40;;;;;;4888051;29;20246;-66
2021/05/18 13:00:36;;;;;;;1.10;1.00;;;21.00;93.30;;;;;;4892077;29;20459;-65
2021/05/18 13:03:13;;;;;;;1.40;1.00;;;22.30;85.80;;;;;;4893244;29;21039;-67
2021/05/18 13:05:52;;;;;;;1.60;0.80;;;22.50;81.70;;;;;;4882805;29;20504;-67
2021/05/18 13:08:18;;;;;;;1.10;1.00;;;20.70;81.10;;;;;;4884547;29;20526;-66
2021/05/18 13:11:10;;;;;;;0.70;0.70;;;19.50;88.70;;;;;;4892173;29;20494;-67
2021/05/18 13:13:36;;;;;;;1.53;0.90;;;18.60;91.70;;;;;;4893412;29;20427;-67
2021/05/18 13:16:07;;;;;;;2.33;1.00;;;18.20;92.90;;;;;;4894094;29;20446;-66
2021/05/18 13:18:33;;;;;;;1.67;0.90;;;17.50;94.40;;;;;;4887929;29;20199;-67
2021/05/18 13:21:00;;;;;;;3.07;1.20;;;17.70;95.40;;;;;;4893488;29;20442;-66
2021/05/18 13:28:39;;;;;;;1.40;1.30;;;19.80;81.60;;;;;;4887114;29;20461;-68
2021/05/18 13:31:05;;;;;;;0.93;0.80;;;20.30;79.20;;;;;;4894400;29;20434;-66
2021/05/18 13:33:31;;;;;;;0.83;0.80;;;19.80;79.60;;;;;;4894119;29;20187;-67
2021/05/18 13:35:57;;;;;;;4.60;1.10;;;19.60;82.10;;;;;;4892547;29;20518;-67
2021/05/18 13:38:23;;;;;;;1.20;1.10;;;19.30;78.90;;;;;;4885111;29;20971;-67
2021/05/18 13:40:49;;;;;;;0.83;0.83;;;19.10;82.40;;;;;;4884307;29;20223;-68
2021/05/18 13:43:15;;;;;;;2.40;0.87;;;19.20;84.60;;;;;;4880313;29;20247;-66
2021/05/18 13:45:40;;;;;;;0.90;0.80;;;19.10;84.80;;;;;;4893574;29;20474;-67
2021/05/18 13:48:07;;;;;;;2.07;1.60;;;18.60;87.40;;;;;;4890932;29;20273;-66
2021/05/18 13:50:34;;;;;;;1.97;1.73;;;17.50;91.90;;;;;;4892612;29;20179;-67
2021/05/18 13:52:59;;;;;;;3.90;0.87;;;17.20;94.40;;;;;;4892696;29;20446;-66
2021/05/18 13:55:25;;;;;;;1.67;1.30;;;16.90;95.50;;;;;;4892222;29;20443;-67
2021/05/18 13:57:51;;;;;;;1.30;1.20;;;16.50;97.70;;;;;;4890477;29;20214;-67
2021/05/18 14:00:19;;;;;;;3.00;1.60;;;16.20;99.90;;;;;;4892596;29;20243;-66
2021/05/18 14:02:46;;;;;;;1.00;1.00;;;16.00;99.90;;;;;;4887695;29;20191;-65
2021/05/18 14:05:17;;;;;;;2.10;2.00;;;16.00;99.00;;;;;;4887914;29;20470;-66
2021/05/18 14:10:43;;;;;;;5.57;1.13;;;16.00;99.00;;;;;;4882405;29;20431;-65
2021/05/18 14:13:08;;;;;;;1.23;1.00;;;15.80;99.90;;;;;;4879205;29;20952;-66
2021/05/18 14:15:34;;;;;;;2.80;1.30;;;15.80;99.90;;;;;;4892806;29;20266;-65
2021/05/18 14:17:59;;;;;;;1.10;1.00;;;15.70;99.90;;;;;;4882130;29;20246;-66
2021/05/18 14:20:25;;;;;;;1.00;1.00;;;15.90;99.90;;;;;;4892117;29;20180;-65
2021/05/18 14:22:50;;;;;;;1.47;1.10;;;15.90;99.90;;;;;;4892753;29;20269;-66
2021/05/18 14:25:16;;;;;;;1.30;1.30;;;16.10;99.90;;;;;;4892830;29;20223;-67
2021/05/18 14:27:43;;;;;;;1.00;0.90;;;16.50;99.90;;;;;;4891867;29;20574;-66
2021/05/18 14:30:11;;;;;;;2.73;1.10;;;16.60;99.90;;;;;;4892798;29;20439;-66
2021/05/18 14:32:37;;;;;;;1.20;1.07;;;16.30;99.90;;;;;;4893141;29;20439;-66
2021/05/18 14:35:08;;;;;;;4.77;1.23;;;16.40;99.90;;;;;;4892375;29;20530;-66
2021/05/18 14:37:33;;;;;;;5.77;1.00;;;16.20;99.90;;;;;;4885335;29;20497;-66
2021/05/18 14:40:22;;;;;;;1.30;1.20;;;16.40;99.90;;;;;;4891718;29;20453;-67
2021/05/18 14:45:29;;;;;;;1.20;1.10;;;16.60;99.90;;;;;;4889991;29;21006;-66
2021/05/18 14:55:49;;;;;;;1.27;0.90;;;15.90;99.90;;;;;;4892982;29;20491;-67
2021/05/18 14:58:16;;;;;;;1.33;1.23;;;16.40;99.90;;;;;;4884028;29;20520;-66
2021/05/18 15:00:42;;;;;;;1.97;1.10;;;16.50;99.90;;;;;;4887249;29;20472;-65
2021/05/18 15:03:07;;;;;;;1.40;0.70;;;16.50;99.50;;;;;;4892520;29;20455;-66
2021/05/18 15:05:33;;;;;;;1.10;1.00;;;16.10;99.90;;;;;;4892132;29;20696;-66
2021/05/18 15:07:59;;;;;;;2.33;1.00;;;15.80;99.90;;;;;;4886390;29;20239;-67
2021/05/18 15:10:27;;;;;;;2.63;1.00;;;15.70;99.90;;;;;;4880702;29;20233;-66
2021/05/18 15:12:53;;;;;;;2.03;1.40;;;16.00;99.90;;;;;;4880064;29;20859;-67
2021/05/18 15:15:19;;;;;;;4.67;0.80;;;16.20;99.90;;;;;;4891175;29;20443;-66
2021/05/18 15:17:45;;;;;;;1.17;1.07;;;16.40;99.90;;;;;;4889697;29;20211;-66
2021/05/18 15:20:11;;;;;;;1.20;1.10;;;16.60;99.90;;;;;;4886114;29;20183;-67
2021/05/18 15:22:38;;;;;;;2.90;1.07;;;17.10;99.90;;;;;;4874979;29;20515;-66
2021/05/18 15:25:05;;;;;;;1.90;1.47;;;17.50;99.20;;;;;;4885008;29;20585;-65
2021/05/18 15:27:30;;;;;;;1.73;1.63;;;17.40;99.10;;;;;;4890686;29;20563;-67
2021/05/18 15:29:56;;;;;;;2.03;1.30;;;17.40;99.00;;;;;;4894402;29;20443;-66
2021/05/18 15:32:21;;;;;;;1.73;1.37;;;17.10;99.00;;;;;;4894470;29;20199;-67
2021/05/18 15:34:47;;;;;;;1.40;1.30;;;17.00;98.70;;;;;;4895548;29;20660;-67
2021/05/18 15:37:14;;;;;;;1.33;1.23;;;16.80;99.50;;;;;;4895303;29;20541;-65
2021/05/18 15:39:40;;;;;;;1.83;1.33;;;16.60;99.90;;;;;;4894043;29;20313;-64
2021/05/18 15:42:06;;;;;;;2.17;2.03;;;16.30;99.90;;;;;;4895271;29;20467;-64
2021/05/18 15:44:31;;;;;;;2.40;1.47;;;16.20;99.90;;;;;;4895489;29;21004;-64
2021/05/18 15:46:58;;;;;;;2.83;1.40;;;16.20;99.90;;;;;;4895585;29;20443;-64
2021/05/18 15:49:25;;;;;;;4.10;1.17;;;16.10;99.90;;;;;;4895238;29;20629;-64
2021/05/18 15:51:50;;;;;;;2.27;1.33;;;15.90;99.90;;;;;;4895421;29;20526;-65
2021/05/18 15:54:16;;;;;;;2.00;1.40;;;15.80;99.90;;;;;;4895568;29;20526;-65
2021/05/18 15:56:42;;;;;;;2.10;1.20;;;15.60;99.90;;;;;;4895549;29;20780;-64
2021/05/18 15:59:07;;;;;;;3.87;2.23;;;15.60;99.90;;;;;;4895150;29;20210;-64
2021/05/18 16:01:33;;;;;;;2.20;1.20;;;15.30;99.90;;;;;;4895482;29;20194;-67
2021/05/18 16:03:58;;;;;;;2.63;1.60;;;15.20;99.90;;;;;;4895435;29;20684;-67
2021/05/18 16:06:24;;;;;;;3.10;2.37;;;15.30;99.90;;;;;;4895417;29;20268;-64
2021/05/18 16:11:15;;;;;;;1.50;1.40;;;15.40;99.90;;;;;;4895617;29;20178;-64
2021/05/18 16:13:41;;;;;;;1.67;1.57;;;15.50;99.90;;;;;;4895267;29;20213;-67
2021/05/18 16:16:08;;;;;;;1.97;1.23;;;15.70;99.90;;;;;;4898054;29;20195;-65
2021/05/18 16:18:35;;;;;;;1.13;1.03;;;15.70;99.90;;;;;;4898710;29;20526;-65
2021/05/18 16:21:01;;;;;;;1.43;1.20;;;15.60;99.90;;;;;;4898628;29;20951;-65
2021/05/18 16:23:28;;;;;;;1.50;0.80;;;15.60;99.90;;;;;;4898050;29;20443;-64
2021/05/18 16:25:57;;;;;;;2.07;1.50;;;15.30;99.90;;;;;;4898915;29;20447;-65
2021/05/18 16:28:24;;;;;;;1.47;1.17;;;15.20;99.90;;;;;;4871644;29;20474;-67
2021/05/18 16:30:49;;;;;;;3.77;1.80;;;15.00;99.90;;;;;;4876628;29;20986;-64
2021/05/18 16:33:15;;;;;;;1.93;1.60;;;15.00;99.90;;;;;;4896694;29;20435;-66
2021/05/18 16:35:41;;;;;;;5.83;1.93;;;15.10;99.90;;;;;;4897394;29;20187;-64
2021/05/18 16:38:07;;;;;;;1.97;1.70;;;14.90;99.90;;;;;;4893832;29;20522;-65
2021/05/18 16:40:33;;;;;;;3.23;2.50;;;14.90;99.90;;;;;;4893517;29;20443;-64
2021/05/18 16:42:58;;;;;;;1.87;1.47;;;14.80;99.90;;;;;;4898151;29;20183;-64
2021/05/18 16:45:24;;;;;;;2.13;1.97;;;14.90;99.90;;;;;;4898622;29;20623;-64
2021/05/18 16:47:50;;;;;;;5.87;2.20;;;14.90;99.90;;;;;;4893909;29;20223;-64
2021/05/18 16:50:15;;;;;;;2.53;1.87;;;14.90;99.90;;;;;;4898058;29;20495;-64
2021/05/18 16:52:41;;;;;;;1.70;1.47;;;14.70;99.90;;;;;;4898223;29;20230;-65
2021/05/18 16:55:08;;;;;;;3.57;2.10;;;14.60;99.90;;;;;;4897842;29;20597;-64
2021/05/18 16:57:34;;;;;;;1.50;1.40;;;14.20;99.90;;;;;;4888992;29;20197;-64
2021/05/18 17:00:00;;;;;;;2.70;1.50;;;13.90;99.90;;;;;;4897787;29;20446;-66
2021/05/18 17:02:25;;;;;;;3.23;1.90;;;13.70;99.90;;;;;;4889467;29;20440;-65
2021/05/18 17:04:51;;;;;;;4.20;2.10;;;13.70;99.90;;;;;;4897663;29;20203;-64
2021/05/18 17:07:18;;;;;;;2.80;2.50;;;13.70;99.90;;;;;;4895087;29;20722;-65
2021/05/18 17:09:44;;;;;;;7.10;2.20;;;13.90;99.90;;;;;;4893467;29;20217;-65
2021/05/18 17:12:10;;;;;;;2.13;2.00;;;13.90;99.90;;;;;;4897723;29;20985;-65
2021/05/18 17:14:35;;;;;;;4.07;3.67;;;13.90;99.90;;;;;;4896663;29;20187;-66
2021/05/18 17:17:01;;;;;;;4.00;1.83;;;13.80;99.90;;;;;;4897855;29;20191;-65
2021/05/18 17:19:27;;;;;;;1.57;1.47;;;13.70;99.90;;;;;;4893552;29;20581;-66
2021/05/18 17:21:53;;;;;;;1.33;1.23;;;13.60;99.90;;;;;;4898099;29;20470;-66
2021/05/18 17:24:18;;;;;;;1.30;1.00;;;13.30;99.90;;;;;;4891242;29;20682;-64
2021/05/18 17:26:44;;;;;;;2.20;1.13;;;12.90;99.90;;;;;;4878892;29;20319;-67
2021/05/18 17:29:11;;;;;;;0.90;0.90;;;12.50;99.90;;;;;;4887841;29;20237;-66
2021/05/18 17:31:37;;;;;;;3.10;2.80;;;12.10;99.90;;;;;;4897561;29;20692;-67
2021/05/18 17:34:04;;;;;;;5.70;4.07;;;12.00;99.90;;;;;;4897344;29;20579;-66
2021/05/18 17:36:29;;;;;;;1.20;1.10;;;11.90;99.90;;;;;;4897891;29;20243;-67
2021/05/18 17:38:55;;;;;;;2.20;1.53;;;12.00;99.90;;;;;;4891837;29;20471;-67